עמוד ראשי
METAR-TAF:

METAR-TAF

שדות תעופה :

Barter Island, אלסקה, ארצות הברית

קו רוחב: 70-08-02N, קו אורך: 143-34-37W, גובה: 2מטר

תצפית מזג אוויר נוכחית

הדו"ח נערך לפני 24דקות, בשעה 20:14 UTC
רוח 9קשר מכיוון מזרח/צפון-מזרח
טמפרטורת 0 צלסיוס
לחות 93%
לחץ 1017 hPa
ראות: 16.1קילומטר
עננים פזורים בגובה 400רגל

METAR: PABA 172014Z 06009KT 10SM SCT004 00/M01 A3002 RMK AO2 FZRANO

זמן: 12:38 (20:38 UTC)


TAF: חסר

תצפיות ותחזיות מזג אוויר לגבי יותר מ- 4,000 שדות תעופה ברחבי העולם. דוחות METAR ו- TAF.

התחנות הזמינות מסומנות בנקודות צהובות ואדומות על גבי המפה.

העבר את העכבר לנקודה הצבעונית על מנת לראות את שם התחנה.

לאחר מכן, לחץ כדי לראות את תוכן ואת תחזיות מזג האוויר.

כדי לשנות את המפה: לחץ על הכפתורים הירוקים עם הפלוס השחור כדי להתקרב; על הכפתור הירוק עם המקף כדי להתרחק; או בחיצים הירוקים למפות סמוכות.


METAR-TAF: